createdAt,value
2019-04-19T00:00:24.831Z,61.91
2019-04-19T00:01:24.681Z,61.82
2019-04-19T00:02:23.718Z,61.63
2019-04-19T00:03:27.264Z,61.72
2019-04-19T00:04:22.638Z,61.63
2019-04-19T00:05:18.233Z,61.63
2019-04-19T00:06:21.295Z,61.63
2019-04-19T00:07:18.559Z,61.63
2019-04-19T00:08:28.550Z,61.63
2019-04-19T00:09:25.933Z,61.43
2019-04-19T00:10:24.776Z,61.43
2019-04-19T00:11:20.983Z,61.53
2019-04-19T00:12:21.631Z,61.63
2019-04-19T00:13:08.130Z,62.1
2019-04-19T00:14:06.488Z,62.1
2019-04-19T00:15:05.524Z,62.65
2019-04-19T00:16:02.995Z,62.1
2019-04-19T00:17:01.777Z,61.91
2019-04-19T00:18:06.000Z,62.1
2019-04-19T00:19:19.464Z,62.1
2019-04-19T00:20:21.783Z,62.1
2019-04-19T00:21:12.089Z,62.1
2019-04-19T00:22:13.081Z,62.2
2019-04-19T00:23:04.029Z,62.68
2019-04-19T00:23:54.484Z,62.2
2019-04-19T00:24:50.607Z,62.49
2019-04-19T00:25:49.430Z,62.59
2019-04-19T00:26:48.681Z,62.46
2019-04-19T00:27:52.374Z,62.46
2019-04-19T00:28:51.105Z,62.84
2019-04-19T00:29:52.450Z,62.87
2019-04-19T00:30:51.744Z,62.87
2019-04-19T00:31:50.990Z,62.01
2019-04-19T00:32:55.845Z,62.46
2019-04-19T00:33:43.293Z,62.49
2019-04-19T00:34:37.672Z,62.39
2019-04-19T00:35:35.060Z,62.93
2019-04-19T00:36:34.029Z,62.65
2019-04-19T00:37:33.330Z,62.55
2019-04-19T00:38:42.372Z,62.46
2019-04-19T00:39:39.751Z,62.93
2019-04-19T00:40:37.997Z,62.74
2019-04-19T00:41:40.704Z,62.74
2019-04-19T00:42:39.825Z,62.55
2019-04-19T00:43:38.790Z,62.84
2019-04-19T00:44:45.234Z,62.93
2019-04-19T00:45:34.528Z,62.74
2019-04-19T00:46:33.433Z,63.22
2019-04-19T00:47:32.824Z,63.22
2019-04-19T00:48:34.603Z,62.93
2019-04-19T00:49:25.615Z,62.93
2019-04-19T00:50:23.360Z,62.93
2019-04-19T00:51:22.842Z,63.13
2019-04-19T00:52:31.399Z,62.93
2019-04-19T00:53:22.399Z,62.74
2019-04-19T00:54:17.684Z,62.74
2019-04-19T00:55:13.527Z,62.74
2019-04-19T00:56:13.227Z,62.93
2019-04-19T00:57:14.593Z,62.55
2019-04-19T00:58:09.044Z,62.74
2019-04-19T00:59:05.462Z,62.93
2019-04-19T01:00:00.265Z,62.93
2019-04-19T01:01:05.810Z,62.93
2019-04-19T01:02:03.071Z,62.74
2019-04-19T01:02:58.237Z,62.84
2019-04-19T01:03:55.608Z,63.03
2019-04-19T01:04:57.028Z,62.93
2019-04-19T01:05:58.783Z,62.93
2019-04-19T01:06:55.499Z,62.74
2019-04-19T01:07:49.518Z,62.74
2019-04-19T01:08:56.941Z,62.65
2019-04-19T01:10:05.922Z,62.74
2019-04-19T01:11:02.303Z,62.93
2019-04-19T01:11:58.940Z,62.93
2019-04-19T01:12:57.853Z,62.55
2019-04-19T01:13:58.438Z,62.84
2019-04-19T01:14:47.595Z,63.22
2019-04-19T01:15:50.897Z,63.42
2019-04-19T01:16:50.606Z,62.93
2019-04-19T01:17:53.798Z,63.32
2019-04-19T01:18:43.906Z,63.6
2019-04-19T01:19:34.127Z,63.42
2019-04-19T01:20:33.058Z,63.13
2019-04-19T01:21:30.402Z,63.13
2019-04-19T01:22:31.112Z,63.22
2019-04-19T01:23:27.549Z,63.42
2019-04-19T01:24:32.201Z,63.42
2019-04-19T01:25:27.294Z,63.42
2019-04-19T01:26:23.592Z,63.22
2019-04-19T01:27:25.983Z,63.32
2019-04-19T01:28:23.865Z,63.22
2019-04-19T01:29:21.259Z,63.42
2019-04-19T01:30:26.501Z,63.89
2019-04-19T01:31:21.140Z,63.99
2019-04-19T01:32:17.992Z,63.76
2019-04-19T01:33:14.599Z,63.96
2019-04-19T01:34:17.916Z,63.86
2019-04-19T01:35:15.087Z,64.15
2019-04-19T01:36:10.369Z,64.05
2019-04-19T01:37:11.119Z,63.96
2019-04-19T01:38:08.759Z,63.8
2019-04-19T01:39:21.483Z,63.99
2019-04-19T01:40:16.581Z,63.96
2019-04-19T01:41:16.849Z,64.34
2019-04-19T01:42:20.749Z,64.25
2019-04-19T01:43:15.648Z,64.34
2019-04-19T01:44:19.780Z,64.25
2019-04-19T01:45:13.272Z,64.53
2019-04-19T01:46:09.164Z,64.43
2019-04-19T01:47:07.231Z,64.53
2019-04-19T01:48:05.908Z,65.01
2019-04-19T01:49:03.603Z,64.34
2019-04-19T01:50:01.742Z,64.34
2019-04-19T01:51:01.936Z,64.05
2019-04-19T01:52:07.614Z,64.43
2019-04-19T01:53:08.868Z,64.34
2019-04-19T01:54:02.861Z,64.72
2019-04-19T01:54:54.026Z,64.72
2019-04-19T01:55:44.790Z,64.43
2019-04-19T01:56:48.179Z,64.25
2019-04-19T01:57:40.879Z,64.15
2019-04-19T01:58:44.390Z,64.34
2019-04-19T01:59:43.254Z,64.15
2019-04-19T02:00:41.658Z,64.05
2019-04-19T02:01:35.974Z,64.43
2019-04-19T02:02:36.654Z,64.43
2019-04-19T02:03:38.471Z,64.25
2019-04-19T02:04:32.913Z,65.05
2019-04-19T02:05:29.659Z,64.56
2019-04-19T02:06:33.578Z,64.82
2019-04-19T02:07:29.227Z,64.76
2019-04-19T02:08:24.766Z,64.63
2019-04-19T02:09:31.189Z,64.63
2019-04-19T02:10:37.669Z,65.3
2019-04-19T02:11:33.240Z,65.3
2019-04-19T02:12:33.131Z,65.3
2019-04-19T02:13:26.493Z,65.2
2019-04-19T02:14:21.113Z,65.11
2019-04-19T02:15:26.649Z,65.11
2019-04-19T02:16:18.362Z,65.01
2019-04-19T02:17:15.119Z,65.49
2019-04-19T02:18:17.382Z,65.58
2019-04-19T02:19:14.015Z,65.39
2019-04-19T02:20:11.534Z,65.88
2019-04-19T02:21:08.788Z,65.88
2019-04-19T02:22:12.615Z,65.88
2019-04-19T02:23:07.873Z,65.88
2019-04-19T02:24:04.180Z,65.97
2019-04-19T02:25:02.537Z,65.88
2019-04-19T02:26:06.381Z,65.49
2019-04-19T02:27:04.657Z,65.78
2019-04-19T02:27:58.452Z,65.97
2019-04-19T02:29:02.451Z,65.49
2019-04-19T02:30:00.460Z,65.78
2019-04-19T02:31:10.267Z,65.49
2019-04-19T02:33:14.703Z,66.06
2019-04-19T02:34:21.043Z,65.88
2019-04-19T02:35:10.982Z,65.88
2019-04-19T02:36:15.298Z,66.25
2019-04-19T02:37:15.252Z,66.16
2019-04-19T02:38:10.865Z,66.64
2019-04-19T02:41:10.326Z,66.54
2019-04-19T02:42:15.747Z,66.22
2019-04-19T02:43:06.322Z,66.54
2019-04-19T02:44:03.786Z,66.32
2019-04-19T02:45:03.497Z,66.61
2019-04-19T02:46:15.718Z,66.51
2019-04-19T02:47:17.578Z,66.51
2019-04-19T02:47:53.106Z,67.08
2019-04-19T02:49:01.195Z,66.99
2019-04-19T02:51:51.937Z,67.37
2019-04-19T02:52:56.054Z,67.66
2019-04-19T02:53:53.692Z,67.85
2019-04-19T02:55:52.508Z,67.94
2019-04-19T02:58:39.472Z,67.27
2019-04-19T03:01:44.138Z,67.76
2019-04-19T03:02:52.394Z,67.85
2019-04-19T03:03:46.385Z,67.47
2019-04-19T03:04:44.065Z,67.47
2019-04-19T03:06:21.448Z,67.37
2019-04-19T03:07:07.844Z,67.66
2019-04-19T03:08:04.035Z,67.56
2019-04-19T03:09:02.954Z,67.56
2019-04-19T03:10:00.203Z,67.37
2019-04-19T03:11:08.921Z,67.37
2019-04-19T03:12:09.737Z,67.37
2019-04-19T03:13:12.602Z,67.56
2019-04-19T03:14:07.685Z,67.18
2019-04-19T03:15:09.323Z,67.27
2019-04-19T03:16:09.591Z,67.27
2019-04-19T03:17:09.846Z,66.99
2019-04-19T03:18:13.250Z,67.47
2019-04-19T03:19:00.627Z,67.47
2019-04-19T03:20:05.029Z,67.76
2019-04-19T03:20:57.180Z,67.56
2019-04-19T03:21:55.848Z,67.66
2019-04-19T03:22:58.197Z,67.76
2019-04-19T03:23:59.250Z,67.66
2019-04-19T03:24:59.301Z,67.56
2019-04-19T03:25:47.782Z,67.85
2019-04-19T03:26:47.982Z,68.13
2019-04-19T03:27:46.996Z,67.66
2019-04-19T03:28:43.293Z,68.13
2019-04-19T03:29:38.759Z,67.56
2019-04-19T03:31:00.838Z,67.66
2019-04-19T03:31:58.586Z,68.2
2019-04-19T03:33:58.404Z,68.58
2019-04-19T03:34:56.181Z,68.49
2019-04-19T03:35:48.922Z,67.85
2019-04-19T03:36:41.902Z,68.04
2019-04-19T03:37:43.599Z,68.1
2019-04-19T03:38:38.628Z,67.76
2019-04-19T03:39:36.386Z,68.23
2019-04-19T03:40:34.366Z,68.13
2019-04-19T03:41:46.378Z,67.91
2019-04-19T03:42:40.384Z,68.1
2019-04-19T03:43:35.098Z,67.82
2019-04-19T03:44:30.450Z,67.85
2019-04-19T03:45:28.542Z,68.13
2019-04-19T03:46:25.932Z,67.82
2019-04-19T03:47:27.666Z,68.01
2019-04-19T03:48:26.894Z,68.77
2019-04-19T03:49:30.152Z,68.49
2019-04-19T03:50:19.709Z,68.52
2019-04-19T03:51:17.787Z,68.39
2019-04-19T03:52:19.937Z,68.39
2019-04-19T03:53:17.213Z,68.58
2019-04-19T03:54:17.318Z,68.49
2019-04-19T03:55:18.759Z,68.2
2019-04-19T03:56:15.404Z,68.42
2019-04-19T03:57:09.971Z,68.42
2019-04-19T03:58:03.073Z,68.13
2019-04-19T03:58:54.197Z,68.04
2019-04-19T03:59:52.265Z,68.04
2019-04-19T04:00:50.384Z,67.76
2019-04-19T04:01:53.084Z,68.04
2019-04-19T04:02:48.342Z,68.33
2019-04-19T04:03:48.163Z,68.1
2019-04-19T04:04:52.543Z,68.87
2019-04-19T04:05:47.293Z,67.91
2019-04-19T04:06:44.008Z,68.04
2019-04-19T04:07:41.258Z,67.63
2019-04-19T04:08:45.947Z,67.94
2019-04-19T04:09:44.017Z,67.94
2019-04-19T04:10:39.493Z,68.04
2019-04-19T04:11:36.133Z,68.13
2019-04-19T04:12:44.790Z,68.13
2019-04-19T04:13:42.971Z,67.91
2019-04-19T04:14:46.657Z,68.1
2019-04-19T04:15:46.474Z,68.68
2019-04-19T04:16:35.459Z,68.39
2019-04-19T04:17:27.294Z,68.23
2019-04-19T04:18:25.844Z,68.42
2019-04-19T04:19:25.033Z,68.33
2019-04-19T04:20:24.244Z,68.52
2019-04-19T04:21:28.195Z,68.71
2019-04-19T04:22:26.428Z,68.68
2019-04-19T04:23:27.055Z,68.52
2019-04-19T04:24:24.514Z,68.71
2019-04-19T04:25:22.467Z,68.62
2019-04-19T04:26:19.373Z,68.87
2019-04-19T04:27:28.831Z,68.96
2019-04-19T04:28:26.001Z,68.96
2019-04-19T04:29:19.103Z,69.15
2019-04-19T04:30:17.267Z,68.87
2019-04-19T04:31:17.057Z,69.06
2019-04-19T04:32:15.473Z,69.06
2019-04-19T04:33:15.254Z,69.25
2019-04-19T04:34:20.438Z,69.06
2019-04-19T04:35:19.263Z,69.25
2019-04-19T04:36:20.725Z,69.25
2019-04-19T04:37:16.444Z,69.44
2019-04-19T04:38:08.711Z,69.35
2019-04-19T04:38:57.072Z,69.06
2019-04-19T04:39:55.859Z,69.06
2019-04-19T04:40:54.754Z,69.06
2019-04-19T04:42:05.295Z,69.5
2019-04-19T04:43:03.766Z,70.21
2019-04-19T04:44:07.769Z,70.4
2019-04-19T04:45:14.784Z,70.3
2019-04-19T04:46:14.991Z,69.54
2019-04-19T04:47:07.328Z,70.36
2019-04-19T04:47:59.734Z,69.92
2019-04-19T04:49:03.805Z,70.21
2019-04-19T04:50:05.098Z,69.64
2019-04-19T04:50:59.851Z,70.11
2019-04-19T04:51:54.624Z,70.3
2019-04-19T04:52:42.050Z,69.54
2019-04-19T04:53:36.527Z,70.01
2019-04-19T04:54:35.452Z,70.01
2019-04-19T04:55:36.623Z,70.01
2019-04-19T04:56:44.070Z,70.21
2019-04-19T04:57:40.353Z,69.92
2019-04-19T04:58:34.151Z,69.73
2019-04-19T04:59:30.014Z,70.11
2019-04-19T05:00:33.825Z,70.01
2019-04-19T05:01:37.141Z,69.73
2019-04-19T05:02:40.794Z,69.73
2019-04-19T05:03:42.804Z,69.15
2019-04-19T05:04:32.922Z,69.25
2019-04-19T05:05:34.364Z,69.35
2019-04-19T05:06:33.286Z,68.96
2019-04-19T05:07:32.537Z,68.77
2019-04-19T05:08:34.992Z,68.68
2019-04-19T05:09:31.669Z,69.06
2019-04-19T05:10:27.832Z,68.33
2019-04-19T05:11:29.546Z,68.42
2019-04-19T05:12:36.243Z,68.04
2019-04-19T05:13:43.165Z,68.23
2019-04-19T05:14:27.298Z,68.13
2019-04-19T05:15:26.142Z,68.29
2019-04-19T05:16:32.209Z,68.04
2019-04-19T05:17:31.998Z,68.01
2019-04-19T05:20:03.339Z,68.68
2019-04-19T05:20:55.334Z,69.15
2019-04-19T05:22:00.505Z,69.06
2019-04-19T05:22:57.724Z,68.96
2019-04-19T05:23:58.839Z,68.87
2019-04-19T05:25:03.545Z,68.77
2019-04-19T05:25:55.348Z,69.06
2019-04-19T05:26:56.196Z,68.96
2019-04-19T05:27:50.027Z,69.35
2019-04-19T05:28:46.265Z,69.54
2019-04-19T05:29:37.861Z,68.58
2019-04-19T05:30:40.108Z,68.77
2019-04-19T05:31:35.435Z,68.87
2019-04-19T05:32:30.024Z,69.15
2019-04-19T05:33:36.603Z,69.15
2019-04-19T05:34:41.228Z,69.15
2019-04-19T05:35:33.580Z,69.35
2019-04-19T05:36:38.270Z,69.54
2019-04-19T05:37:38.047Z,70.21
2019-04-19T05:38:42.140Z,70.21
2019-04-19T05:39:36.863Z,69.73
2019-04-19T05:40:32.433Z,69.54
2019-04-19T05:41:29.566Z,69.54
2019-04-19T05:42:34.117Z,69.25
2019-04-19T05:43:51.127Z,69.09
2019-04-19T05:44:35.142Z,68.42
2019-04-19T05:46:27.956Z,68.52
2019-04-19T05:47:23.254Z,68.62
2019-04-19T05:48:19.671Z,68.8
2019-04-19T05:49:19.250Z,67.85
2019-04-19T05:50:25.355Z,68.13
2019-04-19T05:51:38.461Z,68.62
2019-04-19T05:52:17.176Z,68.42
2019-04-19T05:53:09.760Z,68.52
2019-04-19T05:54:03.773Z,68.87
2019-04-19T05:54:56.109Z,68.62
2019-04-19T05:55:54.652Z,68.17
2019-04-19T05:56:57.132Z,68.04
2019-04-19T05:58:05.507Z,67.88
2019-04-19T05:58:59.812Z,68.23
2019-04-19T05:59:56.401Z,68.04
2019-04-19T06:01:01.671Z,67.94
2019-04-19T06:01:58.541Z,67.76
2019-04-19T06:02:56.649Z,68.13
2019-04-19T06:03:57.190Z,68.42
2019-04-19T06:05:05.661Z,67.94
2019-04-19T06:06:06.864Z,68.17
2019-04-19T06:06:56.312Z,67.79
2019-04-19T06:07:48.628Z,67.88
2019-04-19T06:08:39.253Z,67.41
2019-04-19T06:09:36.753Z,66.93
2019-04-19T06:10:43.123Z,66.25
2019-04-19T06:11:37.713Z,66.35
2019-04-19T06:12:35.281Z,66.48
2019-04-19T06:13:31.918Z,66.09
2019-04-19T06:16:25.207Z,65.91
2019-04-19T06:17:27.583Z,65.62
2019-04-19T06:18:21.403Z,66.16
2019-04-19T06:19:27.446Z,65.71
2019-04-19T06:20:20.236Z,64.85
2019-04-19T06:23:06.968Z,65.23
2019-04-19T06:24:05.334Z,64.95
2019-04-19T06:25:00.269Z,65.14
2019-04-19T06:26:11.057Z,65.23
2019-04-19T06:27:06.522Z,64.66
2019-04-19T06:29:06.116Z,65.3
2019-04-19T06:30:05.667Z,65.49
2019-04-19T06:30:54.520Z,65.88
2019-04-19T06:31:57.047Z,65.88
2019-04-19T06:32:55.916Z,65.2
2019-04-19T06:33:53.241Z,65.33
2019-04-19T06:34:44.043Z,65.11
2019-04-19T06:35:40.328Z,65.42
2019-04-19T06:36:29.322Z,65.88
2019-04-19T06:37:29.720Z,65.62
2019-04-19T06:38:26.686Z,65.91
2019-04-19T06:39:24.675Z,65.23
2019-04-19T06:40:27.646Z,65.62
2019-04-19T06:41:23.728Z,65.23
2019-04-19T06:42:31.764Z,65.62
2019-04-19T06:43:32.424Z,64.66
2019-04-19T06:44:34.029Z,65.08
2019-04-19T06:45:30.058Z,64.5
2019-04-19T06:46:28.577Z,64.22
2019-04-19T06:47:21.688Z,63.73
2019-04-19T06:48:16.530Z,63.86
2019-04-19T06:49:15.728Z,63
2019-04-19T06:50:08.926Z,63.29
2019-04-19T06:51:17.268Z,62.9
2019-04-19T06:52:13.254Z,62.9
2019-04-19T06:53:05.917Z,63.09
2019-04-19T06:54:07.037Z,62.84
2019-04-19T06:55:08.113Z,62.36
2019-04-19T06:56:10.614Z,62.01
2019-04-19T06:57:11.751Z,61.24
2019-04-19T06:58:07.298Z,61.81
2019-04-19T06:59:07.012Z,61.62
2019-04-19T07:00:09.311Z,60.66
2019-04-19T07:01:03.033Z,61.05
2019-04-19T07:01:55.611Z,60.31
2019-04-19T07:02:52.084Z,60.11
2019-04-19T07:03:49.842Z,60.4
2019-04-19T07:04:59.000Z,60.31
2019-04-19T07:06:05.725Z,59.73
2019-04-19T07:07:05.477Z,59.92
2019-04-19T07:08:08.716Z,60.4
2019-04-19T07:09:07.188Z,60.11
2019-04-19T07:10:07.726Z,60.11
2019-04-19T07:11:00.079Z,60.66
2019-04-19T07:12:01.682Z,60.6
2019-04-19T07:12:54.962Z,60.43
2019-04-19T07:13:48.279Z,59.76
2019-04-19T07:14:36.431Z,59.47
2019-04-19T07:15:55.000Z,59.09
2019-04-19T07:16:49.336Z,59.28
2019-04-19T07:19:34.490Z,58.89
2019-04-19T07:20:26.251Z,58.87
2019-04-19T07:21:27.612Z,58.77
2019-04-19T07:22:21.371Z,59.34
2019-04-19T07:23:28.026Z,59.34
2019-04-19T07:24:33.229Z,59.25
2019-04-19T07:47:17.341Z,57.71
2019-04-19T07:48:12.343Z,57.77
2019-04-19T07:49:04.613Z,57.87
2019-04-19T07:50:10.991Z,57.68
2019-04-19T07:51:07.857Z,57.2
2019-04-19T07:53:46.068Z,57.58
2019-04-19T07:54:41.063Z,57.97
2019-04-19T07:55:47.026Z,57.58
2019-04-19T07:59:26.931Z,58.8
2019-04-19T08:27:26.822Z,59.38
2019-04-19T08:28:15.843Z,59.02
2019-04-19T08:29:15.741Z,58.8
2019-04-19T08:30:07.758Z,59.19
2019-04-19T08:31:02.877Z,59.47
2019-04-19T08:32:00.333Z,59.28
2019-04-19T08:32:59.738Z,58.99
2019-04-19T08:33:57.877Z,59.28
2019-04-19T08:35:02.364Z,59.57
2019-04-19T08:35:56.890Z,59.6
2019-04-19T08:36:58.404Z,59.02
2019-04-19T08:38:00.457Z,59.66
2019-04-19T08:39:06.470Z,59.41
2019-04-19T08:40:08.014Z,59.99
2019-04-19T08:41:00.688Z,59.5
2019-04-19T08:42:09.226Z,59.12
2019-04-19T08:42:59.625Z,59.31
2019-04-19T08:43:59.010Z,60.17
2019-04-19T08:44:51.139Z,60.08
2019-04-19T08:45:42.260Z,59.5
2019-04-19T08:46:40.813Z,59.02
2019-04-19T08:47:43.586Z,59.12
2019-04-19T08:48:45.848Z,59.12
2019-04-19T08:49:40.461Z,59.22
2019-04-19T08:50:41.236Z,58.73
2019-04-19T08:51:37.084Z,58.92
2019-04-19T08:52:35.416Z,59.02
2019-04-19T08:53:42.452Z,58.35
2019-04-19T08:54:52.013Z,58.25
2019-04-19T08:55:45.976Z,58.25
2019-04-19T08:56:38.033Z,58.25
2019-04-19T08:57:28.575Z,58.35
2019-04-19T08:58:43.190Z,58.06
2019-04-19T08:59:43.708Z,57.77
2019-04-19T09:00:51.523Z,57.97
2019-04-19T09:01:44.310Z,57.97
2019-04-19T09:02:33.973Z,58.06
2019-04-19T09:03:39.893Z,58.25
2019-04-19T09:04:34.288Z,58.15
2019-04-19T09:05:30.544Z,58.09
2019-04-19T09:08:32.362Z,58.73
2019-04-19T09:09:30.449Z,58.09
2019-04-19T09:10:38.736Z,58.09
2019-04-19T09:11:24.399Z,58.06
2019-04-19T09:12:20.723Z,57.77
2019-04-19T09:13:37.554Z,57.42
2019-04-19T09:14:24.177Z,57.8
2019-04-19T09:15:19.966Z,57.6
2019-04-19T09:16:16.608Z,57.6
2019-04-19T09:17:18.639Z,57.6
2019-04-19T09:19:14.423Z,57.9
2019-04-19T09:20:18.256Z,57.9
2019-04-19T09:21:09.616Z,57.58
2019-04-19T09:22:06.344Z,58.09
2019-04-19T09:23:04.557Z,57.51
2019-04-19T09:23:57.206Z,57.9
2019-04-19T09:24:54.808Z,57.42
2019-04-19T09:25:55.721Z,57.32
2019-04-19T09:26:57.398Z,57.22
2019-04-19T09:28:04.897Z,57.8
2019-04-19T09:28:59.911Z,57.03
2019-04-19T09:29:58.309Z,57.03
2019-04-19T09:30:54.531Z,57.06
2019-04-19T09:31:48.122Z,57.6
2019-04-19T09:32:39.027Z,57.6
2019-04-19T09:33:37.298Z,57.32
2019-04-19T09:34:33.775Z,57.35
2019-04-19T09:35:38.356Z,57.51
2019-04-19T09:36:39.384Z,57.51
2019-04-19T09:37:46.325Z,56.65
2019-04-19T09:38:43.090Z,57.32
2019-04-19T09:39:41.090Z,57.7
2019-04-19T09:40:35.180Z,58.95
2019-04-19T09:41:31.511Z,58.86
2019-04-19T09:42:36.562Z,59.05
2019-04-19T09:45:04.317Z,59.47
2019-04-19T09:46:02.094Z,59.17
2019-04-19T09:47:02.700Z,58.4
2019-04-19T09:47:59.059Z,58.37
2019-04-19T09:49:11.690Z,58.79
2019-04-19T09:50:06.318Z,59.08
2019-04-19T09:51:07.187Z,58.7
2019-04-19T09:52:08.774Z,58.4
2019-04-19T09:53:14.462Z,58.28
2019-04-19T09:54:12.253Z,58.6
2019-04-19T09:55:15.138Z,59.08
2019-04-19T09:56:06.064Z,59.17
2019-04-19T09:57:00.987Z,58.12
2019-04-19T09:58:05.656Z,58.89
2019-04-19T09:58:57.089Z,58.4
2019-04-19T09:59:44.644Z,59.08
2019-04-19T10:00:41.010Z,58.5
2019-04-19T10:01:44.216Z,58.6
2019-04-19T10:02:44.184Z,59.08
2019-04-19T10:03:43.819Z,59.08
2019-04-19T10:04:35.863Z,59.08
2019-04-19T10:05:34.847Z,58.7
2019-04-19T10:06:33.115Z,58.7
2019-04-19T10:07:32.580Z,58.79
2019-04-19T10:08:30.929Z,59.08
2019-04-19T10:09:28.918Z,58.79
2019-04-19T10:10:27.482Z,58.98
2019-04-19T10:11:27.297Z,58.89
2019-04-19T10:12:25.171Z,58.89
2019-04-19T10:17:46.746Z,59.08
2019-04-19T10:21:41.906Z,58.89
2019-04-19T10:22:39.303Z,59.37
2019-04-19T10:23:38.125Z,59.27
2019-04-19T10:44:11.967Z,58.24
2019-04-19T10:45:05.809Z,58.05
2019-04-19T10:46:03.026Z,57.67
2019-04-19T10:47:02.813Z,57.95
2019-04-19T10:48:00.172Z,57.86
2019-04-19T10:49:08.017Z,58.24
2019-04-19T10:50:11.502Z,58.24
2019-04-19T10:50:57.111Z,57.47
2019-04-19T10:51:54.720Z,57.86
2019-04-19T10:52:54.327Z,57.86
2019-04-19T10:53:52.585Z,57.95
2019-04-19T10:54:51.605Z,58.34
2019-04-19T10:55:49.801Z,58.53
2019-04-19T10:56:48.503Z,58.72
2019-04-19T10:57:47.319Z,58.63
2019-04-19T10:58:44.934Z,57.95
2019-04-19T10:59:44.608Z,58.08
2019-04-19T11:00:43.059Z,58.27
2019-04-19T11:01:41.205Z,58.05
2019-04-19T11:02:40.079Z,58.37
2019-04-19T11:03:39.047Z,57.76
2019-04-19T11:04:36.769Z,57.5
2019-04-19T11:05:36.657Z,57.4
2019-04-19T11:06:35.477Z,56.35
2019-04-19T11:07:32.857Z,55.96
2019-04-19T11:08:31.325Z,56.92
2019-04-19T11:09:31.119Z,56.82
2019-04-19T11:10:29.516Z,57.02
2019-04-19T11:11:27.706Z,57.02
2019-04-19T11:12:26.166Z,56.92
2019-04-19T11:16:04.901Z,56.73
2019-04-19T11:17:03.681Z,56.82
2019-04-19T11:18:03.503Z,56.54
2019-04-19T11:19:10.893Z,56.35
2019-04-19T11:20:14.296Z,56.54
2019-04-19T11:20:59.325Z,56.35
2019-04-19T11:21:56.592Z,56.35
2019-04-19T11:22:55.492Z,56.35
2019-04-19T11:23:53.955Z,56.35
2019-04-19T11:24:52.495Z,56.35
2019-04-19T11:25:52.175Z,56.35
2019-04-19T11:26:50.842Z,56.15
2019-04-19T11:27:51.156Z,55.96
2019-04-19T11:28:47.501Z,55.87
2019-04-19T11:29:46.807Z,55.96
2019-04-19T11:30:44.456Z,55.99
2019-04-19T11:31:43.736Z,55.99
2019-04-19T11:32:42.043Z,56.47
2019-04-19T11:33:41.242Z,56.47
2019-04-19T11:34:38.904Z,56.66
2019-04-19T11:35:37.619Z,56.09
2019-04-19T11:36:37.567Z,55.7
2019-04-19T11:37:35.006Z,55.51
2019-04-19T11:38:33.711Z,56.09
2019-04-19T11:39:32.806Z,55.7
2019-04-19T11:40:31.135Z,55.31
2019-04-19T11:41:29.643Z,56.09
2019-04-19T11:42:28.369Z,56.47
2019-04-19T11:43:27.466Z,55.99
2019-04-19T11:44:27.443Z,55.79
2019-04-19T11:45:24.381Z,55.6
2019-04-19T11:46:25.133Z,55.51
2019-04-19T11:47:22.956Z,54.93
2019-04-19T11:48:20.645Z,54.83
2019-04-19T11:49:26.426Z,54.74
2019-04-19T11:50:18.335Z,54.54
2019-04-19T11:51:17.911Z,54.83
2019-04-19T11:52:16.673Z,54.93
2019-04-19T11:53:14.315Z,54.74
2019-04-19T11:54:12.604Z,54.44
2019-04-19T11:55:11.178Z,54.54
2019-04-19T11:56:09.923Z,54.54
2019-04-19T11:57:09.172Z,55.02
2019-04-19T11:58:08.526Z,55.22
2019-04-19T11:59:06.722Z,55.22
2019-04-19T12:00:04.803Z,55.54
2019-04-19T12:01:03.705Z,54.86
2019-04-19T12:02:02.005Z,54.74
2019-04-19T12:03:00.591Z,55.63
2019-04-19T12:04:00.355Z,55.34
2019-04-19T12:04:58.081Z,56.01
2019-04-19T12:05:57.861Z,55.44
2019-04-19T12:06:56.536Z,53.61
2019-04-19T12:07:54.746Z,54.28
2019-04-19T12:08:52.786Z,54.57
2019-04-19T12:09:52.366Z,54.57
2019-04-19T12:10:50.497Z,54.76
2019-04-19T12:11:48.752Z,54.47
2019-04-19T12:12:48.687Z,54.57
2019-04-19T12:13:46.467Z,53.8
2019-04-19T12:14:46.005Z,54.28
2019-04-19T12:15:44.922Z,54.18
2019-04-19T12:16:42.440Z,53.51
2019-04-19T12:17:42.034Z,53.13
2019-04-19T12:18:41.472Z,53.41
2019-04-19T12:19:46.139Z,53.7
2019-04-19T12:20:37.430Z,53.13
2019-04-19T12:21:36.943Z,52.93
2019-04-19T12:22:35.642Z,53.22
2019-04-19T12:23:32.987Z,53.13
2019-04-19T12:24:32.890Z,53.15
2019-04-19T12:25:30.402Z,52.76
2019-04-19T12:26:29.515Z,52.76
2019-04-19T12:27:27.693Z,52.86
2019-04-19T12:28:26.339Z,52.95
2019-04-19T12:29:34.431Z,52.76
2019-04-19T12:30:23.468Z,52.76
2019-04-19T12:31:23.302Z,52.28
2019-04-19T12:32:21.432Z,51.99
2019-04-19T12:33:19.492Z,51.89
2019-04-19T12:34:18.248Z,51.7
2019-04-19T12:35:16.567Z,51.7
2019-04-19T12:36:15.206Z,51.8
2019-04-19T12:37:14.995Z,51.61
2019-04-19T12:38:12.542Z,51.7
2019-04-19T12:39:11.091Z,52.19
2019-04-19T12:40:10.816Z,52.19
2019-04-19T12:41:08.325Z,51.03
2019-04-19T12:42:08.072Z,50.93
2019-04-19T12:43:05.610Z,50.54
2019-04-19T12:44:04.964Z,50.64
2019-04-19T12:45:04.014Z,50.35
2019-04-19T12:46:01.603Z,50.47
2019-04-19T12:47:01.100Z,50.64
2019-04-19T12:47:58.737Z,50.54
2019-04-19T12:48:58.459Z,50.09
2019-04-19T12:50:00.796Z,50.47
2019-04-19T12:50:55.598Z,50.18
2019-04-19T12:51:54.277Z,49.41
2019-04-19T12:52:52.017Z,48.64
2019-04-19T12:53:51.268Z,48.44
2019-04-19T12:54:49.884Z,48.64
2019-04-19T12:55:48.519Z,47.67
2019-04-19T12:56:47.522Z,47.48
2019-04-19T12:57:45.797Z,47.58
2019-04-19T12:58:44.015Z,46.71
2019-04-19T12:59:42.510Z,46.71
2019-04-19T13:00:41.705Z,46.81
2019-04-19T13:01:41.598Z,46.61
2019-04-19T13:02:39.948Z,45.45
2019-04-19T13:03:38.002Z,44.97
2019-04-19T13:04:36.470Z,45.26
2019-04-19T13:05:35.268Z,46.13
2019-04-19T13:06:33.796Z,46.03
2019-04-19T13:07:33.140Z,46.51
2019-04-19T13:08:31.130Z,45.45
2019-04-19T13:09:30.945Z,45.45
2019-04-19T13:10:29.131Z,45.07
2019-04-19T13:11:27.321Z,44.9
2019-04-19T13:12:26.576Z,45.07
2019-04-19T13:13:25.674Z,44.39
2019-04-19T13:14:23.765Z,44.2
2019-04-19T13:15:22.156Z,44.97
2019-04-19T13:16:22.101Z,45.36
2019-04-19T13:17:20.076Z,45.55
2019-04-19T13:18:18.323Z,45.26
2019-04-19T13:19:19.281Z,45.07
2019-04-19T13:20:19.657Z,45.07
2019-04-19T13:21:14.048Z,44.97
2019-04-19T13:22:12.625Z,45.26
2019-04-19T13:23:12.453Z,45.96
2019-04-19T13:24:10.893Z,46.64
2019-04-19T13:25:09.139Z,47.09
2019-04-19T13:26:07.161Z,47.7
2019-04-19T13:27:05.558Z,47.5
2019-04-19T13:28:04.871Z,47.41
2019-04-19T13:29:02.933Z,47.31
2019-04-19T13:30:10.373Z,47.6
2019-04-19T13:31:01.207Z,47.8
2019-04-19T13:31:58.970Z,47.7
2019-04-19T13:32:58.480Z,48.57
2019-04-19T13:33:57.503Z,47.99
2019-04-19T13:34:54.980Z,47.89
2019-04-19T13:35:55.152Z,47.8
2019-04-19T13:36:53.287Z,47.8
2019-04-19T13:37:51.457Z,48.18
2019-04-19T13:38:50.836Z,48.28
2019-04-19T13:39:48.335Z,48.76
2019-04-19T13:40:47.326Z,48.66
2019-04-19T13:41:47.172Z,48.47
2019-04-19T13:42:44.782Z,48.37
2019-04-19T13:43:43.168Z,48.28
2019-04-19T13:44:43.033Z,48.47
2019-04-19T13:45:41.299Z,48.76
2019-04-19T13:46:40.365Z,48.76
2019-04-19T13:47:38.550Z,48.66
2019-04-19T13:48:36.699Z,48.47
2019-04-19T13:49:35.091Z,48.37
2019-04-19T13:50:37.752Z,48.66
2019-04-19T13:51:32.368Z,48.28
2019-04-19T13:52:30.815Z,48.66
2019-04-19T13:53:30.815Z,48.66
2019-04-19T13:54:28.433Z,48.66
2019-04-19T13:55:26.939Z,48.57
2019-04-19T13:56:26.745Z,48.18
2019-04-19T13:57:24.239Z,48.49
2019-04-19T13:58:22.817Z,48.21
2019-04-19T13:59:22.357Z,48.37
2019-04-19T14:00:20.524Z,48.37
2019-04-19T14:01:18.991Z,48.57
2019-04-19T14:02:20.224Z,48.66
2019-04-19T14:03:17.216Z,48.47
2019-04-19T14:04:15.352Z,48.18
2019-04-19T14:05:13.892Z,48.66
2019-04-19T14:06:12.669Z,48.3
2019-04-19T14:07:11.026Z,48.11
2019-04-19T14:08:10.874Z,48.79
2019-04-19T14:09:09.287Z,48.49
2019-04-19T14:10:07.366Z,48.47
2019-04-19T14:11:06.510Z,48.97
2019-04-19T14:12:04.973Z,48.21
2019-04-19T14:13:03.228Z,48.59
2019-04-19T14:14:03.535Z,48.3
2019-04-19T14:15:00.600Z,48.88
2019-04-19T14:15:59.155Z,48.49
2019-04-19T14:16:58.038Z,48.49
2019-04-19T14:17:56.881Z,48.49
2019-04-19T14:18:55.213Z,48.21
2019-04-19T14:19:54.538Z,48.49
2019-04-19T14:20:54.182Z,47.24
2019-04-19T14:21:51.170Z,47.43
2019-04-19T14:22:49.900Z,47.33
2019-04-19T14:23:49.127Z,47.63
2019-04-19T14:24:50.078Z,47.43
2019-04-19T14:25:45.674Z,46.56